createdAt,value
2019-03-27T00:01:34.480Z,11.60
2019-03-27T00:04:02.935Z,11.70
2019-03-27T00:06:31.437Z,12.70
2019-03-27T00:08:59.863Z,11.90
2019-03-27T00:11:28.316Z,13.60
2019-03-27T00:13:56.757Z,13.10
2019-03-27T00:16:25.204Z,11.90
2019-03-27T00:18:53.641Z,11.90
2019-03-27T00:21:22.077Z,13.80
2019-03-27T00:23:50.508Z,11.83
2019-03-27T00:26:18.962Z,12.27
2019-03-27T00:28:47.387Z,12.50
2019-03-27T00:31:15.834Z,11.53
2019-03-27T00:33:44.284Z,12.60
2019-03-27T00:36:12.721Z,11.47
2019-03-27T00:38:41.163Z,14.30
2019-03-27T00:41:09.597Z,13.47
2019-03-27T00:43:38.020Z,12.57
2019-03-27T00:46:06.468Z,13.67
2019-03-27T00:48:34.953Z,16.60
2019-03-27T00:51:03.491Z,11.73
2019-03-27T00:53:31.931Z,13.30
2019-03-27T00:56:00.363Z,12.20
2019-03-27T00:58:28.813Z,12.50
2019-03-27T01:01:06.366Z,12.53
2019-03-27T01:03:34.817Z,12.80
2019-03-27T01:06:04.488Z,11.80
2019-03-27T01:08:32.946Z,12.17
2019-03-27T01:11:01.378Z,12.27
2019-03-27T01:13:29.813Z,12.10
2019-03-27T01:15:58.252Z,13.00
2019-03-27T01:18:26.704Z,12.60
2019-03-27T01:20:55.136Z,12.10
2019-03-27T01:23:23.576Z,10.93
2019-03-27T01:25:52.008Z,11.60
2019-03-27T01:28:20.471Z,11.43
2019-03-27T01:30:48.905Z,11.50
2019-03-27T01:33:17.358Z,11.93
2019-03-27T01:35:45.788Z,12.10
2019-03-27T01:38:14.234Z,11.80
2019-03-27T01:40:43.127Z,13.13
2019-03-27T01:43:11.572Z,12.07
2019-03-27T01:45:52.140Z,11.77
2019-03-27T01:48:10.210Z,12.70
2019-03-27T01:50:38.640Z,12.57
2019-03-27T01:53:07.094Z,13.70
2019-03-27T01:55:35.536Z,12.23
2019-03-27T01:58:03.973Z,11.27
2019-03-27T02:00:32.405Z,12.00
2019-03-27T02:03:00.848Z,12.40
2019-03-27T02:05:29.298Z,12.07
2019-03-27T02:07:57.739Z,12.43
2019-03-27T02:10:26.182Z,11.30
2019-03-27T02:12:54.625Z,12.77
2019-03-27T02:15:23.056Z,13.10
2019-03-27T02:17:51.505Z,12.87
2019-03-27T02:20:19.929Z,12.47
2019-03-27T02:22:48.372Z,11.20
2019-03-27T02:25:16.804Z,12.80
2019-03-27T02:27:45.258Z,12.77
2019-03-27T02:30:13.829Z,12.40
2019-03-27T02:32:42.260Z,12.63
2019-03-27T02:35:10.858Z,12.03
2019-03-27T02:37:39.296Z,13.03
2019-03-27T02:40:07.978Z,16.37
2019-03-27T02:42:36.478Z,15.20
2019-03-27T02:45:13.464Z,14.10
2019-03-27T02:47:43.062Z,15.90
2019-03-27T02:50:11.641Z,14.17
2019-03-27T02:52:40.066Z,13.83
2019-03-27T02:55:08.758Z,13.33
2019-03-27T02:57:37.257Z,12.70
2019-03-27T03:00:12.785Z,12.70
2019-03-27T03:02:41.299Z,14.40
2019-03-27T03:05:10.282Z,12.53
2019-03-27T03:07:38.734Z,15.00
2019-03-27T03:10:10.921Z,14.50
2019-03-27T03:12:39.348Z,14.50
2019-03-27T03:15:09.117Z,13.83
2019-03-27T03:17:37.549Z,14.90
2019-03-27T03:20:26.856Z,15.30
2019-03-27T03:23:14.666Z,18.70
2019-03-27T03:26:02.503Z,18.40
2019-03-27T03:28:50.282Z,22.23
2019-03-27T03:31:18.733Z,19.07
2019-03-27T03:33:47.463Z,15.77
2019-03-27T03:36:16.570Z,15.13
2019-03-27T03:38:45.070Z,15.00
2019-03-27T03:41:13.501Z,16.60
2019-03-27T03:43:41.951Z,17.37
2019-03-27T03:46:10.453Z,16.90
2019-03-27T03:48:38.895Z,14.80
2019-03-27T03:51:07.606Z,17.00
2019-03-27T03:53:36.163Z,15.80
2019-03-27T03:56:04.857Z,15.90
2019-03-27T03:58:36.428Z,16.23
2019-03-27T04:01:07.072Z,16.10
2019-03-27T04:03:36.117Z,15.63
2019-03-27T04:06:04.654Z,15.10
2019-03-27T04:08:33.080Z,14.70
2019-03-27T04:11:01.580Z,15.37
2019-03-27T04:13:30.047Z,14.93
2019-03-27T04:15:58.512Z,15.07
2019-03-27T04:18:27.027Z,15.13
2019-03-27T04:20:55.477Z,16.53
2019-03-27T04:23:23.921Z,15.17
2019-03-27T04:26:09.060Z,16.30
2019-03-27T04:28:22.525Z,17.03
2019-03-27T04:30:50.957Z,16.30
2019-03-27T04:33:19.377Z,19.90
2019-03-27T04:35:47.830Z,17.43
2019-03-27T04:38:16.262Z,17.97
2019-03-27T04:40:44.782Z,17.40
2019-03-27T04:43:13.295Z,15.03
2019-03-27T04:45:41.839Z,16.47
2019-03-27T04:48:10.272Z,17.40
2019-03-27T04:50:38.711Z,15.37
2019-03-27T04:53:07.132Z,16.50
2019-03-27T04:55:35.609Z,25.60
2019-03-27T04:58:04.053Z,21.10
2019-03-27T05:00:32.495Z,19.80
2019-03-27T05:03:00.932Z,17.30
2019-03-27T05:05:29.370Z,16.57
2019-03-27T05:07:57.801Z,17.60
2019-03-27T05:10:26.252Z,16.70
2019-03-27T05:12:54.683Z,15.80
2019-03-27T05:15:23.127Z,16.87
2019-03-27T05:17:51.552Z,16.30
2019-03-27T05:20:19.987Z,15.80
2019-03-27T05:22:48.427Z,16.70
2019-03-27T05:25:16.864Z,15.93
2019-03-27T05:27:45.311Z,16.03
2019-03-27T05:30:15.348Z,17.80
2019-03-27T05:32:43.802Z,14.43
2019-03-27T05:35:12.384Z,16.20
2019-03-27T05:37:40.830Z,14.40
2019-03-27T05:40:09.430Z,13.53
2019-03-27T05:42:37.876Z,15.10
2019-03-27T05:45:06.744Z,16.10
2019-03-27T05:47:35.207Z,15.60
2019-03-27T05:50:04.396Z,13.30
2019-03-27T05:52:32.894Z,15.73
2019-03-27T05:55:01.353Z,14.90
2019-03-27T05:57:29.792Z,14.70
2019-03-27T05:59:58.228Z,13.10
2019-03-27T06:02:26.706Z,13.50
2019-03-27T06:04:55.222Z,14.77
2019-03-27T06:07:23.657Z,13.17
2019-03-27T06:09:52.087Z,13.40
2019-03-27T06:12:20.531Z,13.43
2019-03-27T06:14:48.966Z,13.77
2019-03-27T06:17:17.411Z,14.00
2019-03-27T06:19:45.852Z,14.57
2019-03-27T06:22:15.199Z,15.87
2019-03-27T06:24:43.765Z,15.00
2019-03-27T06:27:12.208Z,14.40
2019-03-27T06:29:40.646Z,14.87
2019-03-27T06:32:09.097Z,15.20
2019-03-27T06:34:37.525Z,14.17
2019-03-27T06:37:05.960Z,14.27
2019-03-27T06:39:34.389Z,14.00
2019-03-27T06:42:02.864Z,14.07
2019-03-27T06:44:31.298Z,14.40
2019-03-27T06:46:59.742Z,15.30
2019-03-27T06:49:28.164Z,15.27
2019-03-27T06:51:56.591Z,14.17
2019-03-27T06:54:25.047Z,12.87
2019-03-27T06:56:53.486Z,15.00
2019-03-27T06:59:21.965Z,13.20
2019-03-27T07:01:50.555Z,13.90
2019-03-27T07:04:18.999Z,12.93
2019-03-27T07:06:47.445Z,13.90
2019-03-27T07:09:15.967Z,13.53
2019-03-27T07:11:44.394Z,12.37
2019-03-27T07:14:12.849Z,12.03
2019-03-27T07:16:41.277Z,13.13
2019-03-27T07:19:09.828Z,12.30
2019-03-27T07:21:38.283Z,13.60
2019-03-27T07:24:06.735Z,11.87
2019-03-27T07:26:35.160Z,11.77
2019-03-27T07:29:03.674Z,10.97
2019-03-27T07:31:32.202Z,12.93
2019-03-27T07:34:00.653Z,11.07
2019-03-27T07:36:29.101Z,9.07
2019-03-27T07:39:10.197Z,10.17
2019-03-27T07:41:27.708Z,6.97
2019-03-27T07:43:56.146Z,8.00
2019-03-27T07:46:24.596Z,7.33
2019-03-27T07:48:54.391Z,6.60
2019-03-27T07:51:22.975Z,5.90
2019-03-27T07:53:51.428Z,9.67
2019-03-27T07:56:19.940Z,9.00
2019-03-27T07:58:48.391Z,9.83
2019-03-27T08:01:16.823Z,8.83
2019-03-27T08:03:45.289Z,8.10
2019-03-27T08:06:13.721Z,8.43
2019-03-27T08:08:42.163Z,8.27
2019-03-27T08:11:10.597Z,7.43
2019-03-27T08:13:39.035Z,6.80
2019-03-27T08:16:07.463Z,7.60
2019-03-27T08:18:35.974Z,3.10
2019-03-27T08:21:04.399Z,3.80
2019-03-27T08:23:32.868Z,4.93
2019-03-27T08:26:01.306Z,4.10
2019-03-27T08:28:29.775Z,7.10
2019-03-27T08:30:58.261Z,4.07
2019-03-27T08:33:26.775Z,3.57
2019-03-27T08:35:55.205Z,3.60
2019-03-27T08:38:23.675Z,4.70
2019-03-27T08:40:52.178Z,4.50
2019-03-27T08:43:23.951Z,4.33
2019-03-27T08:45:50.764Z,4.83
2019-03-27T08:48:19.209Z,3.77
2019-03-27T08:50:47.645Z,4.17
2019-03-27T08:53:16.163Z,3.73
2019-03-27T08:55:44.607Z,3.97
2019-03-27T08:58:13.037Z,4.67
2019-03-27T09:00:47.448Z,3.70
2019-03-27T09:03:16.128Z,3.70
2019-03-27T09:05:44.637Z,4.20
2019-03-27T09:08:13.143Z,4.67
2019-03-27T09:10:42.203Z,4.30
2019-03-27T09:13:10.641Z,4.00
2019-03-27T09:15:39.085Z,4.03
2019-03-27T09:18:07.585Z,3.20
2019-03-27T09:20:36.037Z,4.03
2019-03-27T09:23:04.647Z,3.47
2019-03-27T09:25:33.096Z,3.33
2019-03-27T09:28:01.528Z,3.70
2019-03-27T09:30:30.046Z,3.40
2019-03-27T09:32:58.468Z,3.33
2019-03-27T09:35:26.912Z,3.53
2019-03-27T09:37:55.340Z,3.73
2019-03-27T09:40:23.792Z,3.40
2019-03-27T09:42:52.273Z,2.67
2019-03-27T09:45:20.811Z,3.47
2019-03-27T09:47:49.258Z,3.10
2019-03-27T09:50:18.716Z,2.87
2019-03-27T09:52:47.238Z,2.67
2019-03-27T09:55:16.194Z,2.90
2019-03-27T09:57:44.621Z,3.53
2019-03-27T10:00:13.356Z,3.50
2019-03-27T10:02:41.793Z,3.63
2019-03-27T10:05:10.375Z,3.20
2019-03-27T10:07:38.816Z,2.67
2019-03-27T10:10:07.693Z,2.13
2019-03-27T10:12:36.124Z,2.77
2019-03-27T10:15:07.406Z,2.77
2019-03-27T10:17:35.928Z,2.50
2019-03-27T10:20:05.162Z,2.20
2019-03-27T10:22:33.602Z,2.37
2019-03-27T10:25:02.025Z,2.50
2019-03-27T10:27:30.464Z,3.00
2019-03-27T10:29:58.896Z,1.97
2019-03-27T10:32:27.354Z,2.37
2019-03-27T10:34:55.794Z,2.00
2019-03-27T10:37:24.232Z,2.40
2019-03-27T10:39:52.671Z,2.40
2019-03-27T10:42:21.118Z,2.50
2019-03-27T10:44:49.612Z,2.60
2019-03-27T10:47:18.047Z,2.50
2019-03-27T10:49:46.471Z,2.40
2019-03-27T10:52:14.918Z,2.00
2019-03-27T10:54:43.345Z,1.97
2019-03-27T10:57:11.793Z,2.03
2019-03-27T10:59:40.229Z,2.10
2019-03-27T11:02:08.681Z,1.83
2019-03-27T11:04:37.105Z,2.30
2019-03-27T11:07:05.555Z,2.33
2019-03-27T11:09:33.985Z,2.07
2019-03-27T11:12:02.422Z,1.70
2019-03-27T11:14:37.953Z,1.97
2019-03-27T11:17:01.015Z,2.17
2019-03-27T11:19:29.453Z,2.10
2019-03-27T11:21:57.960Z,3.13
2019-03-27T11:24:26.391Z,1.93
2019-03-27T11:26:54.826Z,2.13
2019-03-27T11:29:23.265Z,2.70
2019-03-27T11:31:51.741Z,2.20
2019-03-27T11:34:20.226Z,2.37
2019-03-27T11:36:48.667Z,1.73
2019-03-27T11:39:17.164Z,2.70
2019-03-27T11:41:45.604Z,2.00
2019-03-27T11:44:14.039Z,1.93
2019-03-27T11:46:42.483Z,1.80
2019-03-27T11:49:10.909Z,2.40
2019-03-27T11:51:39.347Z,2.37
2019-03-27T11:54:07.781Z,2.30
2019-03-27T11:56:36.228Z,2.37
2019-03-27T11:59:04.724Z,2.00
2019-03-27T12:01:40.473Z,2.23
2019-03-27T12:04:03.312Z,1.80
2019-03-27T12:06:31.768Z,2.10
2019-03-27T12:09:00.263Z,1.90
2019-03-27T12:11:28.688Z,1.97
2019-03-27T12:13:57.133Z,1.77
2019-03-27T12:16:25.645Z,2.27
2019-03-27T12:18:54.079Z,2.07
2019-03-27T12:21:22.532Z,1.83
2019-03-27T12:23:50.988Z,2.20
2019-03-27T12:26:19.426Z,2.43
2019-03-27T12:28:47.893Z,1.87
2019-03-27T12:31:16.329Z,2.07
2019-03-27T12:33:44.780Z,2.47
2019-03-27T12:36:13.203Z,2.20
2019-03-27T12:38:41.658Z,1.73
2019-03-27T12:41:10.093Z,1.63
2019-03-27T12:43:38.545Z,1.43
2019-03-27T12:46:06.979Z,1.80
2019-03-27T12:48:35.402Z,1.40
2019-03-27T12:51:12.857Z,1.93
2019-03-27T12:53:34.055Z,2.17
2019-03-27T12:56:02.480Z,1.57
2019-03-27T12:58:30.964Z,1.40
2019-03-27T13:00:59.379Z,1.30
2019-03-27T13:03:27.823Z,1.33
2019-03-27T13:05:56.259Z,1.63
2019-03-27T13:08:24.708Z,1.27
2019-03-27T13:10:53.149Z,1.40
2019-03-27T13:13:22.597Z,1.53
2019-03-27T13:15:51.032Z,2.03
2019-03-27T13:18:19.473Z,2.20
2019-03-27T13:20:47.924Z,2.00
2019-03-27T13:23:16.376Z,2.13
2019-03-27T13:25:44.795Z,1.90
2019-03-27T13:28:13.237Z,2.47
2019-03-27T13:30:41.751Z,1.77
2019-03-27T13:33:10.256Z,1.70
2019-03-27T13:35:38.703Z,2.10
2019-03-27T13:38:07.153Z,1.80
2019-03-27T13:40:35.586Z,1.83
2019-03-27T13:43:04.025Z,2.00
2019-03-27T13:45:32.460Z,1.37
2019-03-27T13:48:00.901Z,1.83
2019-03-27T13:50:29.334Z,1.83
2019-03-27T13:52:57.863Z,1.77
2019-03-27T13:55:26.377Z,1.43
2019-03-27T13:57:54.945Z,1.60
2019-03-27T14:00:23.553Z,1.30
2019-03-27T14:02:51.980Z,1.60
2019-03-27T14:05:20.503Z,1.33
2019-03-27T14:07:48.923Z,1.43
2019-03-27T14:10:17.440Z,3.87
2019-03-27T14:12:45.944Z,1.90
2019-03-27T14:15:15.195Z,1.50
2019-03-27T14:17:43.772Z,1.77
2019-03-27T14:20:12.872Z,1.73
2019-03-27T14:22:41.295Z,1.67
2019-03-27T14:25:10.461Z,1.30
2019-03-27T14:27:38.901Z,1.70
2019-03-27T14:30:10.676Z,1.20
2019-03-27T14:32:39.116Z,2.07
2019-03-27T14:35:08.808Z,1.70
2019-03-27T14:37:37.307Z,1.60
2019-03-27T14:40:07.615Z,2.37
2019-03-27T14:42:36.175Z,2.07
2019-03-27T14:45:07.561Z,4.10
2019-03-27T14:47:36.156Z,4.73
2019-03-27T14:50:09.336Z,1.97
2019-03-27T14:52:37.841Z,2.27
2019-03-27T14:55:07.419Z,2.30
2019-03-27T14:57:36.130Z,3.50
2019-03-27T15:00:10.437Z,5.60
2019-03-27T15:02:38.932Z,2.03
2019-03-27T15:05:08.593Z,1.87
2019-03-27T15:07:37.025Z,2.20
2019-03-27T15:10:08.059Z,2.57
2019-03-27T15:12:36.932Z,2.63
2019-03-27T15:15:09.740Z,3.27
2019-03-27T15:17:38.449Z,3.10
2019-03-27T15:20:08.288Z,2.30
2019-03-27T15:22:36.724Z,2.20
2019-03-27T15:25:06.690Z,2.20
2019-03-27T15:27:35.131Z,1.57
2019-03-27T15:30:06.927Z,2.17
2019-03-27T15:32:35.370Z,2.63
2019-03-27T15:35:04.667Z,5.17
2019-03-27T15:37:33.089Z,7.13
2019-03-27T15:40:01.612Z,3.03
2019-03-27T15:42:30.036Z,1.97
2019-03-27T15:44:58.476Z,2.10
2019-03-27T15:47:26.961Z,1.83
2019-03-27T15:49:55.425Z,3.13
2019-03-27T15:52:35.878Z,2.03
2019-03-27T15:54:54.217Z,3.87
2019-03-27T15:57:22.767Z,2.97
2019-03-27T15:59:51.396Z,3.23
2019-03-27T16:02:19.893Z,2.53
2019-03-27T16:04:48.403Z,2.50
2019-03-27T16:07:16.866Z,3.40
2019-03-27T16:09:45.297Z,2.70
2019-03-27T16:12:14.941Z,3.37
2019-03-27T16:14:43.538Z,3.03
2019-03-27T16:17:13.603Z,3.53
2019-03-27T16:19:42.529Z,2.90
2019-03-27T16:22:11.104Z,2.30
2019-03-27T16:24:39.666Z,2.50
2019-03-27T16:27:08.720Z,3.17
2019-03-27T16:29:37.207Z,2.80
2019-03-27T16:32:06.303Z,2.47
2019-03-27T16:34:35.532Z,2.90
2019-03-27T16:37:04.173Z,2.50
2019-03-27T16:39:32.738Z,2.50
2019-03-27T16:42:01.357Z,3.83
2019-03-27T16:44:30.073Z,2.70
2019-03-27T16:46:58.730Z,2.90
2019-03-27T16:49:27.277Z,3.00
2019-03-27T16:51:56.534Z,2.23
2019-03-27T16:54:25.297Z,3.70
2019-03-27T16:56:53.892Z,3.50
2019-03-27T16:59:22.598Z,2.87
2019-03-27T17:01:51.198Z,3.90
2019-03-27T17:04:19.739Z,2.80
2019-03-27T17:06:48.394Z,2.90
2019-03-27T17:09:16.943Z,2.80
2019-03-27T17:11:45.475Z,2.70
2019-03-27T17:14:33.295Z,2.53
2019-03-27T17:17:21.091Z,3.60
2019-03-27T17:20:02.033Z,4.57
2019-03-27T17:22:42.939Z,3.30
2019-03-27T17:25:23.806Z,3.40
2019-03-27T17:28:04.948Z,4.83
2019-03-27T17:30:45.868Z,6.30
2019-03-27T17:33:26.687Z,5.10
2019-03-27T17:36:07.747Z,3.70
2019-03-27T17:38:48.624Z,3.07
2019-03-27T17:41:29.498Z,3.03
2019-03-27T17:44:10.337Z,3.23
2019-03-27T17:46:51.197Z,3.50
2019-03-27T17:49:31.909Z,3.00
2019-03-27T17:52:12.857Z,2.80
2019-03-27T17:54:54.176Z,3.57
2019-03-27T17:57:22.753Z,4.30
2019-03-27T17:59:51.307Z,4.03
2019-03-27T18:02:20.001Z,3.37
2019-03-27T18:04:48.474Z,4.23
2019-03-27T18:07:16.981Z,3.80
2019-03-27T18:09:45.534Z,4.27
2019-03-27T18:12:14.168Z,4.10
2019-03-27T18:14:42.763Z,3.00
2019-03-27T18:17:11.221Z,3.47
2019-03-27T18:19:39.647Z,2.63
2019-03-27T18:22:08.294Z,3.10
2019-03-27T18:24:36.826Z,3.33
2019-03-27T18:27:05.334Z,3.87
2019-03-27T18:29:33.818Z,3.03
2019-03-27T18:32:02.290Z,3.30
2019-03-27T18:34:30.810Z,3.10
2019-03-27T18:36:59.239Z,2.70
2019-03-27T18:39:27.748Z,2.80
2019-03-27T18:41:56.202Z,2.60
2019-03-27T18:44:24.656Z,2.87
2019-03-27T18:46:53.190Z,3.00
2019-03-27T18:49:21.626Z,3.43
2019-03-27T18:51:50.249Z,2.83
2019-03-27T18:54:18.704Z,3.27
2019-03-27T18:56:47.239Z,3.70
2019-03-27T18:59:15.694Z,2.80
2019-03-27T19:01:44.147Z,2.40
2019-03-27T19:04:12.608Z,3.07
2019-03-27T19:06:41.131Z,4.30
2019-03-27T19:09:09.727Z,3.20
2019-03-27T19:11:38.197Z,3.07
2019-03-27T19:14:06.644Z,3.80
2019-03-27T19:16:35.170Z,2.93
2019-03-27T19:19:03.690Z,3.17
2019-03-27T19:21:33.097Z,3.70
2019-03-27T19:24:13.213Z,3.03
2019-03-27T19:26:31.707Z,3.80
2019-03-27T19:29:00.202Z,3.20
2019-03-27T19:31:28.741Z,3.50
2019-03-27T19:33:57.270Z,3.20
2019-03-27T19:36:25.693Z,3.33
2019-03-27T19:38:54.148Z,3.33
2019-03-27T19:41:22.699Z,3.20
2019-03-27T19:43:51.257Z,3.30
2019-03-27T19:46:19.789Z,2.83
2019-03-27T19:48:48.222Z,4.53
2019-03-27T19:51:16.670Z,3.60
2019-03-27T19:53:45.238Z,3.83
2019-03-27T19:56:13.770Z,3.40
2019-03-27T19:58:42.335Z,3.40
2019-03-27T20:01:10.836Z,3.50
2019-03-27T20:03:39.300Z,4.13
2019-03-27T20:06:07.770Z,4.63
2019-03-27T20:08:36.280Z,4.33
2019-03-27T20:11:04.994Z,3.93
2019-03-27T20:13:33.466Z,4.27
2019-03-27T20:16:02.017Z,4.17
2019-03-27T20:18:30.488Z,3.37
2019-03-27T20:20:58.945Z,3.77
2019-03-27T20:23:27.391Z,4.20
2019-03-27T20:25:56.938Z,3.80
2019-03-27T20:28:25.452Z,3.83
2019-03-27T20:30:53.974Z,4.07
2019-03-27T20:33:22.492Z,4.20
2019-03-27T20:35:51.055Z,4.17
2019-03-27T20:38:19.572Z,4.03
2019-03-27T20:40:48.065Z,3.53
2019-03-27T20:43:16.606Z,4.20
2019-03-27T20:45:45.245Z,3.57
2019-03-27T20:48:13.712Z,4.37
2019-03-27T20:50:42.296Z,4.07
2019-03-27T20:53:10.878Z,3.83
2019-03-27T20:55:39.422Z,4.10
2019-03-27T20:58:07.925Z,5.40
2019-03-27T21:00:36.617Z,4.67
2019-03-27T21:03:07.197Z,3.80
2019-03-27T21:05:35.738Z,4.60
2019-03-27T21:08:04.275Z,3.63
2019-03-27T21:10:32.712Z,3.77
2019-03-27T21:13:01.169Z,4.10
2019-03-27T21:15:29.714Z,3.73
2019-03-27T21:17:58.227Z,4.10
2019-03-27T21:20:26.769Z,3.93
2019-03-27T21:22:55.294Z,4.27
2019-03-27T21:25:23.809Z,4.07
2019-03-27T21:27:52.333Z,4.00
2019-03-27T21:30:20.776Z,5.53
2019-03-27T21:32:50.177Z,4.80
2019-03-27T21:35:18.767Z,5.63
2019-03-27T21:37:47.261Z,7.77
2019-03-27T21:40:15.791Z,10.17
2019-03-27T21:42:44.249Z,10.13
2019-03-27T21:45:13.051Z,8.83
2019-03-27T21:47:42.614Z,7.10
2019-03-27T21:50:11.380Z,6.50
2019-03-27T21:52:39.852Z,6.67
2019-03-27T21:55:21.533Z,7.00
2019-03-27T21:57:38.849Z,4.20
2019-03-27T22:00:09.744Z,3.70
2019-03-27T22:02:38.222Z,3.87
2019-03-27T22:05:07.531Z,3.23
2019-03-27T22:07:36.086Z,3.50
2019-03-27T22:10:08.088Z,4.13
2019-03-27T22:12:38.268Z,3.70
2019-03-27T22:15:08.396Z,3.73
2019-03-27T22:17:36.904Z,4.53
2019-03-27T22:20:08.596Z,4.10
2019-03-27T22:22:37.038Z,4.43
2019-03-27T22:25:07.125Z,5.40
2019-03-27T22:27:35.582Z,5.17
2019-03-27T22:30:06.174Z,4.67
2019-03-27T22:32:34.658Z,5.03
2019-03-27T22:35:03.809Z,5.10
2019-03-27T22:37:32.274Z,4.77
2019-03-27T22:40:00.841Z,5.80
2019-03-27T22:42:29.305Z,5.10
2019-03-27T22:44:57.741Z,6.23
2019-03-27T22:47:26.199Z,4.47
2019-03-27T22:49:54.648Z,5.30
2019-03-27T22:52:23.132Z,6.20
2019-03-27T22:55:11.053Z,5.13
2019-03-27T22:57:58.840Z,5.20
2019-03-27T23:03:55.136Z,5.73
2019-03-27T23:06:42.910Z,5.10
2019-03-27T23:09:30.675Z,6.17
2019-03-27T23:12:18.444Z,6.70
2019-03-27T23:15:26.944Z,5.20
2019-03-27T23:18:14.786Z,5.10
2019-03-27T23:20:55.485Z,5.27
2019-03-27T23:23:36.519Z,5.30
2019-03-27T23:26:17.231Z,6.77
2019-03-27T23:28:58.017Z,6.23
2019-03-27T23:31:38.950Z,6.07
2019-03-27T23:34:19.601Z,4.90
2019-03-27T23:37:00.097Z,5.83
2019-03-27T23:39:28.550Z,6.53
2019-03-27T23:41:57.007Z,5.90
2019-03-27T23:44:25.443Z,5.87
2019-03-27T23:46:53.861Z,5.00
2019-03-27T23:49:22.295Z,5.97
2019-03-27T23:51:50.714Z,5.33
2019-03-27T23:54:19.169Z,6.20
2019-03-27T23:56:48.101Z,5.83
2019-03-27T23:59:16.594Z,5.23
